Time,TemperatureF,DewpointF,PressureIn,WindDirection,WindDirectionDegrees,WindSpeedMPH,WindSpeedGustMPH,Humidity,HourlyPrecipIn,Conditions,Clouds,dailyrainin,SoftwareType,DateUTC
2013-07-21 00:00:00,70.3,67.2,29.78,South,180,3.0,10.0,90,0.00,,,-99.99,WeatherLink 5.6,2013-07-21 04:00:00,
2013-07-21 00:30:00,69.9,67.5,29.78,South,180,3.0,11.0,92,0.00,,,-99.99,WeatherLink 5.6,2013-07-21 04:30:00,
2013-07-21 01:00:00,70.1,68.3,29.76,South,180,4.0,13.0,94,0.00,,,-99.99,WeatherLink 5.6,2013-07-21 05:00:00,
2013-07-21 01:30:00,70.1,68.6,29.76,South,180,3.0,10.0,95,0.00,,,-99.99,WeatherLink 5.6,2013-07-21 05:30:00,
2013-07-21 02:00:00,69.7,68.5,29.76,South,180,1.0,7.0,96,0.00,,,-99.99,WeatherLink 5.6,2013-07-21 06:00:00,
2013-07-21 02:30:00,69.5,68.3,29.74,South,180,1.0,5.0,96,0.00,,,-99.99,WeatherLink 5.6,2013-07-21 06:30:00,
2013-07-21 03:00:00,69.4,67.9,29.75,South,180,1.0,7.0,95,0.00,,,-99.99,WeatherLink 5.6,2013-07-21 07:00:00,
2013-07-21 03:30:00,68.8,67.3,29.76,South,180,1.0,7.0,95,0.00,,,-99.99,WeatherLink 5.6,2013-07-21 07:30:00,
2013-07-21 04:00:00,68.8,67.3,29.76,South,180,1.0,7.0,95,0.00,,,-99.99,WeatherLink 5.6,2013-07-21 08:00:00,
2013-07-21 04:30:00,68.7,66.9,29.76,South,180,2.0,7.0,94,0.00,,,-99.99,WeatherLink 5.6,2013-07-21 08:30:00,
2013-07-21 05:00:00,67.9,66.7,29.75,South,180,2.0,9.0,96,0.00,,,-99.99,WeatherLink 5.6,2013-07-21 09:00:00,
2013-07-21 05:30:00,67.2,66.3,29.76,South,180,3.0,7.0,97,0.00,,,-99.99,WeatherLink 5.6,2013-07-21 09:30:00,
2013-07-21 06:00:00,67.0,66.1,29.77,South,180,2.0,7.0,97,0.00,,,-99.99,WeatherLink 5.6,2013-07-21 10:00:00,
2013-07-21 06:30:00,67.1,66.5,29.79,South,180,3.0,10.0,98,0.00,,,-99.99,WeatherLink 5.6,2013-07-21 10:30:00,
2013-07-21 07:00:00,67.4,66.8,29.79,South,180,3.0,9.0,98,0.00,,,-99.99,WeatherLink 5.6,2013-07-21 11:00:00,
2013-07-21 07:30:00,67.6,67.0,29.81,South,180,2.0,7.0,98,0.00,,,-99.99,WeatherLink 5.6,2013-07-21 11:30:00,
2013-07-21 08:00:00,67.9,67.3,29.80,South,180,3.0,7.0,98,0.00,,,-99.99,WeatherLink 5.6,2013-07-21 12:00:00,
2013-07-21 08:30:00,68.3,67.7,29.81,South,180,4.0,13.0,98,0.00,,,-99.99,WeatherLink 5.6,2013-07-21 12:30:00,
2013-07-21 09:00:00,69.7,69.1,29.81,South,180,4.0,11.0,98,0.00,,,-99.99,WeatherLink 5.6,2013-07-21 13:00:00,
2013-07-21 09:30:00,71.0,70.4,29.81,South,180,2.0,10.0,98,0.00,,,-99.99,WeatherLink 5.6,2013-07-21 13:30:00,
2013-07-21 10:00:00,74.2,71.7,29.80,SSW,202,1.0,9.0,92,0.00,,,-99.99,WeatherLink 5.6,2013-07-21 14:00:00,
2013-07-21 10:30:00,73.9,70.1,29.81,SSW,202,0.0,7.0,88,0.00,,,-99.99,WeatherLink 5.6,2013-07-21 14:30:00,
2013-07-21 11:00:00,75.7,70.5,29.81,NNE,22,0.0,4.0,84,0.00,,,-99.99,WeatherLink 5.6,2013-07-21 15:00:00,
2013-07-21 11:30:00,70.5,66.8,29.85,WNW,292,3.0,14.0,88,0.11,,,-99.99,WeatherLink 5.6,2013-07-21 15:30:00,
2013-07-21 12:00:00,66.7,64.9,29.84,South,180,0.0,5.0,94,0.30,,,-99.99,WeatherLink 5.6,2013-07-21 16:00:00,
2013-07-21 12:30:00,67.0,65.8,29.85,South,180,0.0,4.0,96,0.21,,,-99.99,WeatherLink 5.6,2013-07-21 16:30:00,
2013-07-21 13:00:00,68.5,67.3,29.83,South,180,1.0,6.0,96,0.02,,,-99.99,WeatherLink 5.6,2013-07-21 17:00:00,
2013-07-21 13:30:00,70.2,69.0,29.81,South,180,0.0,5.0,96,0.01,,,-99.99,WeatherLink 5.6,2013-07-21 17:30:00,
2013-07-21 14:00:00,73.1,71.6,29.78,WSW,247,0.0,6.0,95,0.01,,,-99.99,WeatherLink 5.6,2013-07-21 18:00:00,
2013-07-21 14:30:00,73.7,71.5,29.78,South,180,0.0,4.0,93,0.00,,,-99.99,WeatherLink 5.6,2013-07-21 18:30:00,
2013-07-21 15:00:00,71.0,69.5,29.77,South,180,2.0,10.0,95,0.00,,,-99.99,WeatherLink 5.6,2013-07-21 19:00:00,
2013-07-21 15:30:00,72.5,71.3,29.78,South,180,2.0,9.0,96,0.00,,,-99.99,WeatherLink 5.6,2013-07-21 19:30:00,
2013-07-21 16:00:00,74.6,71.5,29.76,South,180,2.0,9.0,90,0.00,,,-99.99,WeatherLink 5.6,2013-07-21 20:00:00,
2013-07-21 16:30:00,72.9,70.4,29.76,South,180,1.0,6.0,92,0.00,,,-99.99,WeatherLink 5.6,2013-07-21 20:30:00,
2013-07-21 17:00:00,73.1,70.6,29.77,South,180,1.0,7.0,92,0.00,,,-99.99,WeatherLink 5.6,2013-07-21 21:00:00,
2013-07-21 17:30:00,72.6,70.5,29.75,South,180,2.0,9.0,93,0.00,,,-99.99,WeatherLink 5.6,2013-07-21 21:30:00,
2013-07-21 18:00:00,71.6,69.8,29.76,South,180,2.0,10.0,94,0.00,,,-99.99,WeatherLink 5.6,2013-07-21 22:00:00,
2013-07-21 18:30:00,71.2,69.4,29.75,South,180,0.0,4.0,94,0.01,,,-99.99,WeatherLink 5.6,2013-07-21 22:30:00,
2013-07-21 19:00:00,70.7,69.5,29.75,South,180,1.0,5.0,96,0.01,,,-99.99,WeatherLink 5.6,2013-07-21 23:00:00,
2013-07-21 19:30:00,70.3,69.1,29.75,South,180,3.0,11.0,96,0.00,,,-99.99,WeatherLink 5.6,2013-07-21 23:30:00,
2013-07-21 20:00:00,69.8,68.6,29.75,South,180,2.0,7.0,96,0.00,,,-99.99,WeatherLink 5.6,2013-07-22 00:00:00,
2013-07-21 20:30:00,69.3,68.4,29.76,South,180,3.0,10.0,97,0.00,,,-99.99,WeatherLink 5.6,2013-07-22 00:30:00,
2013-07-21 21:00:00,69.1,68.2,29.76,SSW,202,4.0,11.0,97,0.00,,,-99.99,WeatherLink 5.6,2013-07-22 01:00:00,
2013-07-21 21:30:00,69.2,68.3,29.77,SSW,202,3.0,11.0,97,0.00,,,-99.99,WeatherLink 5.6,2013-07-22 01:30:00,
2013-07-21 22:00:00,68.9,68.0,29.77,South,180,5.0,15.0,97,0.00,,,-99.99,WeatherLink 5.6,2013-07-22 02:00:00,
2013-07-21 22:30:00,68.5,67.6,29.77,South,180,2.0,12.0,97,0.00,,,-99.99,WeatherLink 5.6,2013-07-22 02:30:00,
2013-07-21 23:00:00,68.3,67.4,29.76,South,180,2.0,9.0,97,0.00,,,-99.99,WeatherLink 5.6,2013-07-22 03:00:00,
2013-07-21 23:30:00,68.0,67.1,29.80,South,180,3.0,11.0,97,0.00,,,-99.99,WeatherLink 5.6,2013-07-22 03:30:00,